메인 페이지
METAR-TAF:

METAR-TAF

공항 :

Griffiss_Air_Force_Base

Rome, 뉴욕, 미국

위도: 43-14N, 경도: 075-24W, 고도: 154m

현재 날씨관측

예보는 6 시간 20분 전, 04:53시(UTC)에 발표되었습니다.
동남동5kt
온도 -7°C
습도 62%
기압 1015 hPa
시정: 16.1km
고도 10000ft 상공 구름 많음

METAR: KRME 030453Z AUTO 11005KT 10SM BKN100 M07/M13 A2997 RMK AO2 SLP155 T10721128 410561139

시각: 06:13 (11:13 UTC)

예보

예보는 1 시간 3분 전, 10:10시(UTC)에 발표되었습니다.
예보 대상 시간: 03일 10시부터 04일 06시까지 (UTC)
5kt
시정: 10km
고도 5000ft 상공 구름 조금
고도 9000ft 상공 구름 많음
03일 1400시부터 (UTC)
9kt
시정: 10km
고도 4000ft 상공 구름 많음
03일 1700시부터 (UTC)
9kt
시정: 10km
고도 2200ft 상공 구름 많음
03일 2200시부터 (UTC)
6kt
시정: 9.7km
고도 1500ft 상공 흐림
약한소낙눈, 박무
04일 0200시부터 (UTC)
5kt
시정: 6.4km
고도 800ft 상공 흐림
약한소낙눈, 박무
04일 0500시부터 (UTC)
북서6kt
시정: 8.0km
고도 1200ft 상공 구름 많음
약한소낙눈, 박무

TAF: KRME 031010Z 0310/0406 10005KT P6SM FEW050 BKN090 WS020/28035KT FM031400 27009KT P6SM BKN040 FM031700 27009KT P6SM BKN022 FM032200 28006KT 6SM -SHSN BR OVC015 FM040200 28005KT 4SM -SHSN BR OVC008 FM040500 31006KT 5SM -SHSN BR BKN012 AMD NOT SKED

4,000개 이상의 공항 관측 자료 및 예보 (METAR 및 TAF 보고).

지도상에서 검색 가능한 기상관측소가 노란 점과 빨간 점으로 표시되어 있습니다.

기상관측소 명을 보려면 표시 위로 마우스를 이동하세요.

날씨 관측과 예보를 보려면 클릭하세요.

지도 변경 : 확대하려면 엑스 표시가 있는 녹색 버튼, 축소하려면 빼기 표시가 있는 녹색 버튼, 다음 페이지의 지도를 보려면 녹색 화살표를 클릭하세요.


METAR-TAF: